createdAt,value
2023-03-06T00:00:33.392Z,2.00
2023-03-06T00:01:33.529Z,1.80
2023-03-06T00:02:33.360Z,1.80
2023-03-06T00:03:33.600Z,1.60
2023-03-06T00:04:33.341Z,1.70
2023-03-06T00:05:33.448Z,1.90
2023-03-06T00:06:33.308Z,1.70
2023-03-06T00:07:33.441Z,2.50
2023-03-06T00:08:33.280Z,2.40
2023-03-06T00:09:33.315Z,1.90
2023-03-06T00:10:33.264Z,2.30
2023-03-06T00:11:33.352Z,2.10
2023-03-06T00:12:33.230Z,2.20
2023-03-06T00:13:33.369Z,3.40
2023-03-06T00:14:33.372Z,2.70
2023-03-06T00:15:33.549Z,2.90
2023-03-06T00:16:33.261Z,3.60
2023-03-06T00:17:35.349Z,3.20
2023-03-06T00:18:33.158Z,2.90
2023-03-06T00:19:33.265Z,3.30
2023-03-06T00:20:33.111Z,3.00
2023-03-06T00:21:33.230Z,3.50
2023-03-06T00:22:33.112Z,3.20
2023-03-06T00:23:33.264Z,3.40
2023-03-06T00:24:33.082Z,3.60
2023-03-06T00:25:33.249Z,3.60
2023-03-06T00:26:33.050Z,3.50
2023-03-06T00:27:33.143Z,3.70
2023-03-06T00:28:33.016Z,3.20
2023-03-06T00:29:33.067Z,3.10
2023-03-06T00:30:32.997Z,3.20
2023-03-06T00:31:33.206Z,4.10
2023-03-06T00:32:33.061Z,3.60
2023-03-06T00:33:55.035Z,3.50
2023-03-06T00:34:32.944Z,3.70
2023-03-06T00:35:33.101Z,3.20
2023-03-06T00:36:32.917Z,3.60
2023-03-06T00:37:32.956Z,3.50
2023-03-06T00:38:32.894Z,3.40
2023-03-06T00:39:33.955Z,3.70
2023-03-06T00:40:32.865Z,3.40
2023-03-06T00:41:32.974Z,3.50
2023-03-06T00:42:32.835Z,3.40
2023-03-06T00:43:32.954Z,3.60
2023-03-06T00:44:32.832Z,3.40
2023-03-06T00:45:34.033Z,3.30
2023-03-06T00:46:32.783Z,3.30
2023-03-06T00:47:32.873Z,3.60
2023-03-06T00:48:32.762Z,3.50
2023-03-06T00:49:32.866Z,3.30
2023-03-06T00:50:32.733Z,3.50
2023-03-06T00:51:53.833Z,2.90
2023-03-06T00:52:32.718Z,3.20
2023-03-06T00:53:32.898Z,3.00
2023-03-06T00:54:32.681Z,3.20
2023-03-06T00:55:32.767Z,3.00
2023-03-06T00:56:32.658Z,3.40
2023-03-06T00:57:32.797Z,2.80
2023-03-06T00:58:32.630Z,3.10
2023-03-06T00:59:32.733Z,3.00
2023-03-06T01:00:32.610Z,3.10
2023-03-06T01:01:33.809Z,3.00
2023-03-06T01:02:32.648Z,2.80
2023-03-06T01:03:33.692Z,2.90
2023-03-06T01:04:32.578Z,2.70
2023-03-06T01:05:32.592Z,3.00
2023-03-06T01:06:32.519Z,3.00
2023-03-06T01:07:32.678Z,2.90
2023-03-06T01:08:32.502Z,2.60
2023-03-06T01:09:33.591Z,2.70
2023-03-06T01:10:32.471Z,2.40
2023-03-06T01:11:32.606Z,3.00
2023-03-06T01:12:32.445Z,3.00
2023-03-06T01:13:32.586Z,3.00
2023-03-06T01:14:32.414Z,3.00
2023-03-06T01:15:32.496Z,2.90
2023-03-06T01:16:32.523Z,2.60
2023-03-06T01:17:32.505Z,2.80
2023-03-06T01:18:32.398Z,2.80
2023-03-06T01:19:33.516Z,2.60
2023-03-06T01:20:32.343Z,2.60
2023-03-06T01:22:41.858Z,2.80
2023-03-06T01:23:41.647Z,2.60
2023-03-06T01:24:41.772Z,2.80
2023-03-06T01:25:41.620Z,2.80
2023-03-06T01:26:41.717Z,2.70
2023-03-06T01:27:41.577Z,2.60
2023-03-06T01:28:41.658Z,2.80
2023-03-06T01:29:41.571Z,2.70
2023-03-06T01:30:41.676Z,2.40
2023-03-06T01:31:41.565Z,2.60
2023-03-06T01:32:42.699Z,2.40
2023-03-06T01:33:41.515Z,2.40
2023-03-06T01:34:41.678Z,2.60
2023-03-06T01:35:41.528Z,2.60
2023-03-06T01:36:41.668Z,2.90
2023-03-06T01:37:41.472Z,2.60
2023-03-06T01:38:41.537Z,2.60
2023-03-06T01:39:41.436Z,2.50
2023-03-06T01:40:42.509Z,2.40
2023-03-06T01:41:41.415Z,2.60
2023-03-06T01:42:41.564Z,2.40
2023-03-06T01:43:41.389Z,2.50
2023-03-06T01:44:41.548Z,2.50
2023-03-06T01:45:41.386Z,2.70
2023-03-06T01:46:41.511Z,2.80
2023-03-06T01:47:41.333Z,2.40
2023-03-06T01:48:41.464Z,2.50
2023-03-06T01:49:41.299Z,2.10
2023-03-06T01:50:41.452Z,2.60
2023-03-06T01:51:41.298Z,2.80
2023-03-06T01:52:41.381Z,1.90
2023-03-06T01:53:41.264Z,2.20
2023-03-06T01:54:41.368Z,2.30
2023-03-06T01:55:41.235Z,2.40
2023-03-06T01:56:41.263Z,2.10
2023-03-06T01:57:41.209Z,2.40
2023-03-06T01:58:41.301Z,2.40
2023-03-06T01:59:41.183Z,2.50
2023-03-06T02:00:41.281Z,2.40
2023-03-06T02:01:41.150Z,2.10
2023-03-06T02:02:41.213Z,2.10
2023-03-06T02:03:41.122Z,2.10
2023-03-06T02:04:41.328Z,2.20
2023-03-06T02:05:41.118Z,2.50
2023-03-06T02:06:41.183Z,2.30
2023-03-06T02:07:41.122Z,2.00
2023-03-06T02:08:41.171Z,2.00
2023-03-06T02:09:41.042Z,2.30
2023-03-06T02:10:41.210Z,2.30
2023-03-06T02:11:41.052Z,2.20
2023-03-06T02:12:41.190Z,2.20
2023-03-06T02:13:41.001Z,2.20
2023-03-06T02:14:43.080Z,2.10
2023-03-06T02:15:40.974Z,2.00
2023-03-06T02:16:41.093Z,2.10
2023-03-06T02:17:40.941Z,2.00
2023-03-06T02:18:41.107Z,1.70
2023-03-06T02:19:40.909Z,2.10
2023-03-06T02:20:41.081Z,2.00
2023-03-06T02:21:40.890Z,1.90
2023-03-06T02:22:41.030Z,2.00
2023-03-06T02:23:40.871Z,2.10
2023-03-06T02:24:40.900Z,1.80
2023-03-06T02:25:40.850Z,2.30
2023-03-06T02:26:40.905Z,1.70
2023-03-06T02:27:40.810Z,2.00
2023-03-06T02:28:40.939Z,2.00
2023-03-06T02:29:40.779Z,1.80
2023-03-06T02:30:42.971Z,2.00
2023-03-06T02:31:40.763Z,2.00
2023-03-06T02:32:42.990Z,1.70
2023-03-06T02:33:40.737Z,1.90
2023-03-06T02:34:40.828Z,1.70
2023-03-06T02:35:40.747Z,1.70
2023-03-06T02:36:40.819Z,1.70
2023-03-06T02:37:40.679Z,2.00
2023-03-06T02:39:01.781Z,2.00
2023-03-06T02:39:40.648Z,2.10
2023-03-06T02:40:40.839Z,1.70
2023-03-06T02:41:40.633Z,1.90
2023-03-06T02:42:41.791Z,1.90
2023-03-06T02:43:40.594Z,1.80
2023-03-06T02:44:40.708Z,1.80
2023-03-06T02:45:40.575Z,1.90
2023-03-06T02:46:40.637Z,1.90
2023-03-06T02:47:40.557Z,2.00
2023-03-06T02:48:40.726Z,1.80
2023-03-06T02:49:40.517Z,1.80
2023-03-06T02:50:40.727Z,1.80
2023-03-06T02:51:40.486Z,2.10
2023-03-06T02:52:40.545Z,1.80
2023-03-06T02:53:40.470Z,2.10
2023-03-06T02:54:40.522Z,1.80
2023-03-06T02:55:40.447Z,1.70
2023-03-06T02:56:40.560Z,1.70
2023-03-06T02:57:40.420Z,2.10
2023-03-06T02:58:40.550Z,2.00
2023-03-06T02:59:40.381Z,1.80
2023-03-06T03:00:40.430Z,1.60
2023-03-06T03:01:40.422Z,1.70
2023-03-06T03:02:40.411Z,1.60
2023-03-06T03:03:40.345Z,1.80
2023-03-06T03:04:40.520Z,1.80
2023-03-06T03:05:40.305Z,1.80
2023-03-06T03:06:41.498Z,1.70
2023-03-06T03:07:40.271Z,2.00
2023-03-06T03:08:40.432Z,1.80
2023-03-06T03:09:40.239Z,1.70
2023-03-06T03:10:41.286Z,1.80
2023-03-06T03:11:40.220Z,1.70
2023-03-06T03:12:40.350Z,1.60
2023-03-06T03:13:40.187Z,1.90
2023-03-06T03:14:40.370Z,1.90
2023-03-06T03:15:40.218Z,1.70
2023-03-06T03:16:40.269Z,1.80
2023-03-06T03:17:40.147Z,1.70
2023-03-06T03:18:40.348Z,1.70
2023-03-06T03:19:40.116Z,1.50
2023-03-06T03:20:40.243Z,1.80
2023-03-06T03:21:40.078Z,2.00
2023-03-06T03:22:40.169Z,1.60
2023-03-06T03:23:40.105Z,1.90
2023-03-06T03:24:40.241Z,1.70
2023-03-06T03:25:40.039Z,1.60
2023-03-06T03:26:40.153Z,1.40
2023-03-06T03:27:40.019Z,1.70
2023-03-06T03:28:40.080Z,1.60
2023-03-06T03:29:39.990Z,1.70
2023-03-06T03:30:40.061Z,1.60
2023-03-06T03:31:39.961Z,1.50
2023-03-06T03:32:40.068Z,1.80
2023-03-06T03:33:39.954Z,1.90
2023-03-06T03:34:40.091Z,1.60
2023-03-06T03:35:39.958Z,1.50
2023-03-06T03:36:41.115Z,1.70
2023-03-06T03:37:39.887Z,1.60
2023-03-06T03:38:39.949Z,1.70
2023-03-06T03:39:39.851Z,1.60
2023-03-06T03:40:39.998Z,1.30
2023-03-06T03:41:39.829Z,1.70
2023-03-06T03:42:40.001Z,1.40
2023-03-06T03:43:39.799Z,1.60
2023-03-06T03:45:00.943Z,1.80
2023-03-06T03:45:39.801Z,1.60
2023-03-06T03:46:39.908Z,1.50
2023-03-06T03:47:39.750Z,1.50
2023-03-06T03:48:40.811Z,1.60
2023-03-06T03:49:39.726Z,1.70
2023-03-06T03:50:39.874Z,2.00
2023-03-06T03:51:39.701Z,1.70
2023-03-06T03:52:39.817Z,1.70
2023-03-06T03:53:39.680Z,1.70
2023-03-06T03:54:39.798Z,1.60
2023-03-06T03:55:39.641Z,1.60
2023-03-06T03:56:39.667Z,1.50
2023-03-06T03:57:39.624Z,1.50
2023-03-06T03:58:39.732Z,1.50
2023-03-06T03:59:39.598Z,1.80
2023-03-06T04:00:40.717Z,1.50
2023-03-06T04:01:39.947Z,1.70
2023-03-06T04:02:39.676Z,1.50
2023-03-06T04:03:39.540Z,1.50
2023-03-06T04:04:39.731Z,1.60
2023-03-06T04:05:39.527Z,1.70
2023-03-06T04:06:39.600Z,1.70
2023-03-06T04:07:39.484Z,1.60
2023-03-06T04:08:39.586Z,1.60
2023-03-06T04:09:39.454Z,1.90
2023-03-06T04:10:39.622Z,1.60
2023-03-06T04:11:39.425Z,1.50
2023-03-06T04:12:41.546Z,1.70
2023-03-06T04:13:39.405Z,1.80
2023-03-06T04:14:39.495Z,1.50
2023-03-06T04:15:39.375Z,1.80
2023-03-06T04:16:39.424Z,1.60
2023-03-06T04:17:39.352Z,1.90
2023-03-06T04:18:39.515Z,1.70
2023-03-06T04:19:39.323Z,1.60
2023-03-06T04:20:39.493Z,1.70
2023-03-06T04:21:39.294Z,1.80
2023-03-06T04:22:39.432Z,1.60
2023-03-06T04:23:39.274Z,1.50
2023-03-06T04:24:39.317Z,1.50
2023-03-06T04:25:39.242Z,1.50
2023-03-06T04:26:39.300Z,1.60
2023-03-06T04:27:39.223Z,2.10
2023-03-06T04:28:39.382Z,1.50
2023-03-06T04:29:39.189Z,1.60
2023-03-06T04:30:39.329Z,1.50
2023-03-06T04:31:39.268Z,1.60
2023-03-06T04:32:39.424Z,1.60
2023-03-06T04:33:39.149Z,1.60
2023-03-06T04:34:40.275Z,1.70
2023-03-06T04:35:39.174Z,1.40
2023-03-06T04:36:39.239Z,1.50
2023-03-06T04:37:39.120Z,1.60
2023-03-06T04:38:39.232Z,1.80
2023-03-06T04:39:39.054Z,1.50
2023-03-06T04:40:39.248Z,1.90
2023-03-06T04:41:39.041Z,1.70
2023-03-06T04:42:39.134Z,1.80
2023-03-06T04:43:39.005Z,1.50
2023-03-06T04:44:39.145Z,1.70
2023-03-06T04:45:39.153Z,1.70
2023-03-06T04:46:39.053Z,1.60
2023-03-06T04:47:38.963Z,1.70
2023-03-06T04:48:39.154Z,1.70
2023-03-06T04:49:38.933Z,1.70
2023-03-06T04:50:39.127Z,1.70
2023-03-06T04:51:38.907Z,1.60
2023-03-06T04:52:38.955Z,1.50
2023-03-06T04:53:38.880Z,1.80
2023-03-06T04:54:38.953Z,1.50
2023-03-06T04:55:38.847Z,1.80
2023-03-06T04:56:38.934Z,1.40
2023-03-06T04:57:38.825Z,1.70
2023-03-06T04:58:40.005Z,1.70
2023-03-06T04:59:39.289Z,1.50
2023-03-06T05:00:38.983Z,1.70
2023-03-06T05:01:38.771Z,1.70
2023-03-06T05:02:38.832Z,1.60
2023-03-06T05:03:38.756Z,1.30
2023-03-06T05:04:38.908Z,1.80
2023-03-06T05:05:38.731Z,1.80
2023-03-06T05:06:38.851Z,1.60
2023-03-06T05:07:38.699Z,1.70
2023-03-06T05:08:41.031Z,1.60
2023-03-06T05:09:39.192Z,1.80
2023-03-06T05:10:38.777Z,1.50
2023-03-06T05:11:38.666Z,1.30
2023-03-06T05:12:38.769Z,1.40
2023-03-06T05:13:38.628Z,1.50
2023-03-06T05:14:38.747Z,1.70
2023-03-06T05:15:38.588Z,1.40
2023-03-06T05:16:38.724Z,1.50
2023-03-06T05:17:38.579Z,1.50
2023-03-06T05:18:38.816Z,1.10
2023-03-06T05:19:38.524Z,1.30
2023-03-06T05:20:38.655Z,1.50
2023-03-06T05:21:38.505Z,1.50
2023-03-06T05:22:38.685Z,1.50
2023-03-06T05:23:38.535Z,1.30
2023-03-06T05:24:38.573Z,1.40
2023-03-06T05:25:38.455Z,1.60
2023-03-06T05:26:38.554Z,1.50
2023-03-06T05:27:38.473Z,1.40
2023-03-06T05:28:38.494Z,1.50
2023-03-06T05:29:38.402Z,1.60
2023-03-06T05:30:38.481Z,1.80
2023-03-06T05:31:38.413Z,1.50
2023-03-06T05:32:38.519Z,1.40
2023-03-06T05:33:38.375Z,1.70
2023-03-06T05:34:38.492Z,1.60
2023-03-06T05:35:38.357Z,1.50
2023-03-06T05:36:40.534Z,1.50
2023-03-06T05:37:38.283Z,1.20
2023-03-06T05:38:38.385Z,1.50
2023-03-06T05:39:38.264Z,1.70
2023-03-06T05:40:38.405Z,1.70
2023-03-06T05:41:38.246Z,1.50
2023-03-06T05:42:38.392Z,1.70
2023-03-06T05:43:38.215Z,1.70
2023-03-06T05:44:38.380Z,1.70
2023-03-06T05:45:38.284Z,1.50
2023-03-06T05:46:38.324Z,1.60
2023-03-06T05:47:38.176Z,1.50
2023-03-06T05:48:38.315Z,1.60
2023-03-06T05:49:38.137Z,1.60
2023-03-06T05:50:38.284Z,1.60
2023-03-06T05:51:38.122Z,1.50
2023-03-06T05:52:38.215Z,1.60
2023-03-06T05:53:38.087Z,1.50
2023-03-06T05:54:38.304Z,1.70
2023-03-06T05:55:38.125Z,1.70
2023-03-06T05:56:38.094Z,1.80
2023-03-06T05:57:38.056Z,1.80
2023-03-06T05:58:38.168Z,1.70
2023-03-06T05:59:38.013Z,1.70
2023-03-06T06:00:38.122Z,1.60
2023-03-06T06:01:37.983Z,2.00
2023-03-06T06:02:38.304Z,1.40
2023-03-06T06:03:38.171Z,1.50
2023-03-06T06:04:38.134Z,1.80
2023-03-06T06:05:37.939Z,1.60
2023-03-06T06:06:38.011Z,1.50
2023-03-06T06:07:37.900Z,1.50
2023-03-06T06:08:38.003Z,1.50
2023-03-06T06:09:37.881Z,1.30
2023-03-06T06:10:38.054Z,1.70
2023-03-06T06:11:37.851Z,1.80
2023-03-06T06:12:38.026Z,1.50
2023-03-06T06:13:37.835Z,1.60
2023-03-06T06:14:37.901Z,1.60
2023-03-06T06:15:37.926Z,1.40
2023-03-06T06:16:58.828Z,1.30
2023-03-06T06:17:37.776Z,1.60
2023-03-06T06:18:40.985Z,1.40
2023-03-06T06:19:37.758Z,1.40
2023-03-06T06:20:37.939Z,2.30
2023-03-06T06:21:37.734Z,5.70
2023-03-06T06:22:37.910Z,4.80
2023-03-06T06:23:37.687Z,2.00
2023-03-06T06:24:37.731Z,1.80
2023-03-06T06:25:37.675Z,1.80
2023-03-06T06:26:38.738Z,1.80
2023-03-06T06:27:37.669Z,2.20
2023-03-06T06:29:46.990Z,2.90
2023-03-06T06:30:46.959Z,3.10
2023-03-06T06:31:47.040Z,3.70
2023-03-06T06:32:46.890Z,3.60
2023-03-06T06:33:48.029Z,4.00
2023-03-06T06:34:46.867Z,5.10
2023-03-06T06:35:47.031Z,5.40
2023-03-06T06:36:46.869Z,6.30
2023-03-06T06:37:46.976Z,7.80
2023-03-06T06:38:46.845Z,6.30
2023-03-06T06:39:49.040Z,5.80
2023-03-06T06:40:58.401Z,5.60
2023-03-06T06:42:00.053Z,4.40
2023-03-06T06:42:47.952Z,4.40
2023-03-06T06:43:46.748Z,7.20
2023-03-06T06:44:46.951Z,5.00
2023-03-06T06:45:48.898Z,3.90
2023-03-06T06:47:47.864Z,4.30
2023-03-06T06:48:46.688Z,3.50
2023-03-06T06:49:46.778Z,3.30
2023-03-06T06:50:46.683Z,3.90
2023-03-06T06:51:46.758Z,3.30
2023-03-06T06:52:46.684Z,3.10
2023-03-06T06:53:46.728Z,3.40
2023-03-06T06:54:46.631Z,3.10
2023-03-06T06:55:46.827Z,3.20
2023-03-06T06:56:46.588Z,5.40
2023-03-06T06:57:46.627Z,5.70
2023-03-06T06:58:46.566Z,6.30
2023-03-06T06:59:46.745Z,6.70
2023-03-06T07:00:46.535Z,7.40
2023-03-06T07:01:46.649Z,7.50
2023-03-06T07:02:46.516Z,7.20
2023-03-06T07:03:46.666Z,7.00
2023-03-06T07:05:02.498Z,7.10
2023-03-06T07:05:47.502Z,7.90
2023-03-06T07:06:46.551Z,8.30
2023-03-06T07:07:46.445Z,8.40
2023-03-06T07:08:47.667Z,8.70
2023-03-06T07:09:46.493Z,8.80
2023-03-06T07:10:47.570Z,8.00
2023-03-06T07:11:46.446Z,8.40
2023-03-06T07:12:46.473Z,8.00
2023-03-06T07:13:46.377Z,7.30
2023-03-06T07:14:46.486Z,6.50
2023-03-06T07:15:46.367Z,7.30
2023-03-06T07:16:46.447Z,6.50
2023-03-06T07:17:48.261Z,5.00
2023-03-06T07:18:46.490Z,5.90
2023-03-06T07:19:46.296Z,4.80
2023-03-06T07:20:46.379Z,5.70
2023-03-06T07:21:46.336Z,5.10
2023-03-06T07:22:51.503Z,4.50
2023-03-06T07:23:47.234Z,4.80
2023-03-06T07:24:46.348Z,5.20
2023-03-06T07:25:46.195Z,4.90
2023-03-06T07:26:46.285Z,4.90
2023-03-06T07:27:52.700Z,5.10
2023-03-06T07:28:52.737Z,5.00
2023-03-06T07:29:47.166Z,5.20
2023-03-06T07:30:47.225Z,5.10
2023-03-06T07:31:46.189Z,5.60
2023-03-06T07:32:47.269Z,5.50
2023-03-06T07:33:47.109Z,5.90
2023-03-06T07:34:46.227Z,6.40
2023-03-06T07:35:46.202Z,6.60
2023-03-06T07:36:46.171Z,6.00
2023-03-06T07:37:46.054Z,6.30
2023-03-06T07:38:46.108Z,5.60
2023-03-06T07:39:46.016Z,6.40
2023-03-06T07:40:46.167Z,6.80
2023-03-06T07:41:46.014Z,5.80
2023-03-06T07:42:46.177Z,6.60
2023-03-06T07:43:45.969Z,5.90
2023-03-06T07:45:55.288Z,5.60
2023-03-06T07:46:55.257Z,6.00
2023-03-06T07:47:55.339Z,4.80
2023-03-06T07:48:55.181Z,4.90
2023-03-06T07:49:55.262Z,4.80
2023-03-06T07:50:55.119Z,4.10
2023-03-06T07:51:55.287Z,4.30
2023-03-06T07:52:55.132Z,4.20
2023-03-06T07:53:55.222Z,4.30
2023-03-06T07:54:55.078Z,4.20
2023-03-06T07:55:55.168Z,3.80
2023-03-06T07:56:55.050Z,4.10
2023-03-06T07:57:55.201Z,4.00
2023-03-06T07:58:56.151Z,4.20
2023-03-06T07:59:55.257Z,4.20
2023-03-06T08:00:54.995Z,4.60
2023-03-06T08:01:55.183Z,4.40
2023-03-06T08:02:55.007Z,4.70
2023-03-06T08:03:55.096Z,4.90
2023-03-06T08:04:54.962Z,4.50
2023-03-06T08:06:16.042Z,4.40
2023-03-06T08:06:54.919Z,5.30
2023-03-06T08:07:55.079Z,5.60
2023-03-06T08:08:54.888Z,4.70
2023-03-06T08:09:55.028Z,4.50
2023-03-06T08:10:54.932Z,4.30
2023-03-06T08:11:55.967Z,3.70
2023-03-06T08:12:54.836Z,3.40
2023-03-06T08:13:54.884Z,3.50
2023-03-06T08:14:54.805Z,3.20
2023-03-06T08:15:54.928Z,3.30
2023-03-06T08:16:54.804Z,3.50
2023-03-06T08:17:56.004Z,4.20
2023-03-06T08:18:54.752Z,3.80
2023-03-06T08:19:54.883Z,3.80
2023-03-06T08:20:54.725Z,4.00
2023-03-06T08:21:54.821Z,3.70
2023-03-06T08:22:54.712Z,3.60
2023-03-06T08:23:54.833Z,3.50
2023-03-06T08:24:54.671Z,3.60
2023-03-06T08:25:54.802Z,3.90
2023-03-06T08:26:54.653Z,3.20
2023-03-06T08:27:55.758Z,3.40
2023-03-06T08:28:54.663Z,3.50
2023-03-06T08:29:54.672Z,3.70
2023-03-06T08:30:54.590Z,3.40
2023-03-06T08:31:54.894Z,2.90
2023-03-06T08:32:54.735Z,3.70
2023-03-06T08:33:54.661Z,3.80
2023-03-06T08:34:54.561Z,3.20
2023-03-06T08:35:54.712Z,3.30
2023-03-06T08:36:54.521Z,3.00
2023-03-06T08:37:54.701Z,3.30
2023-03-06T08:38:54.503Z,3.60
2023-03-06T08:39:56.632Z,3.60
2023-03-06T08:40:54.482Z,3.30
2023-03-06T08:42:17.541Z,3.40
2023-03-06T08:42:54.437Z,3.50
2023-03-06T08:43:54.511Z,3.70
2023-03-06T08:44:54.407Z,3.30
2023-03-06T08:45:54.558Z,4.10
2023-03-06T08:46:54.561Z,4.20
2023-03-06T08:47:54.587Z,3.80
2023-03-06T08:48:54.350Z,3.60
2023-03-06T08:49:54.442Z,4.10
2023-03-06T08:50:54.331Z,3.60
2023-03-06T08:51:54.459Z,4.50
2023-03-06T08:52:54.327Z,3.80
2023-03-06T08:53:54.404Z,3.50
2023-03-06T08:54:54.318Z,4.00
2023-03-06T08:55:54.417Z,3.70
2023-03-06T08:56:54.237Z,3.90
2023-03-06T08:57:54.347Z,3.70
2023-03-06T08:58:54.245Z,3.90
2023-03-06T08:59:54.276Z,4.00
2023-03-06T09:00:54.380Z,3.70
2023-03-06T09:01:54.375Z,4.10
2023-03-06T09:02:54.207Z,4.40
2023-03-06T09:03:55.405Z,3.90
2023-03-06T09:04:54.216Z,3.90
2023-03-06T09:05:54.362Z,3.90
2023-03-06T09:06:55.550Z,4.00
2023-03-06T09:07:54.224Z,3.90
2023-03-06T09:08:54.124Z,4.00
2023-03-06T09:09:56.276Z,4.50
2023-03-06T09:10:54.101Z,4.20
2023-03-06T09:11:54.191Z,4.10
2023-03-06T09:12:55.020Z,4.00
2023-03-06T09:13:54.126Z,4.00
2023-03-06T09:14:54.004Z,4.40
2023-03-06T09:15:54.169Z,4.60
2023-03-06T09:16:54.085Z,4.50
2023-03-06T09:17:54.242Z,4.10
2023-03-06T09:18:53.970Z,4.20
2023-03-06T09:19:54.045Z,4.50
2023-03-06T09:20:53.935Z,4.30
2023-03-06T09:21:55.397Z,4.80
2023-03-06T09:22:53.936Z,4.80
2023-03-06T09:23:54.018Z,4.60
2023-03-06T09:24:53.867Z,4.10
2023-03-06T09:25:53.957Z,4.30
2023-03-06T09:26:53.851Z,4.40
2023-03-06T09:28:14.920Z,4.30
2023-03-06T09:28:53.834Z,4.30
2023-03-06T09:29:53.919Z,4.40
2023-03-06T09:30:53.932Z,4.30
2023-03-06T09:31:53.960Z,4.30
2023-03-06T09:32:53.768Z,4.60
2023-03-06T09:33:54.240Z,4.40
2023-03-06T09:34:53.818Z,4.30
2023-03-06T09:35:53.881Z,4.00
2023-03-06T09:36:57.167Z,3.90
2023-03-06T09:37:53.710Z,4.00
2023-03-06T09:38:55.968Z,4.40
2023-03-06T09:39:53.690Z,4.30
2023-03-06T09:40:53.771Z,4.50
2023-03-06T09:41:53.711Z,4.30
2023-03-06T09:42:53.801Z,4.10
2023-03-06T09:43:53.627Z,4.20
2023-03-06T09:44:53.759Z,4.40
2023-03-06T09:45:53.678Z,3.70
2023-03-06T09:46:53.806Z,4.20
2023-03-06T09:47:53.617Z,4.30
2023-03-06T09:48:54.627Z,3.90
2023-03-06T09:49:53.554Z,4.80
2023-03-06T09:50:53.648Z,4.40
2023-03-06T09:51:53.794Z,3.90
2023-03-06T09:52:54.636Z,4.10
2023-03-06T09:53:53.504Z,4.80
2023-03-06T09:54:53.605Z,4.30
2023-03-06T09:55:53.523Z,4.40
2023-03-06T09:56:53.653Z,4.30
2023-03-06T09:57:53.470Z,4.60
2023-03-06T09:58:53.484Z,4.40
2023-03-06T09:59:53.404Z,4.40
2023-03-06T10:00:53.518Z,4.00
2023-03-06T10:01:53.442Z,4.00
2023-03-06T10:02:55.632Z,4.10
2023-03-06T10:03:53.363Z,4.00
2023-03-06T10:05:14.525Z,4.40
2023-03-06T10:05:53.328Z,3.70
2023-03-06T10:06:53.433Z,4.90
2023-03-06T10:07:53.300Z,4.20
2023-03-06T10:08:54.555Z,4.30
2023-03-06T10:09:53.284Z,4.10
2023-03-06T10:10:53.470Z,3.90
2023-03-06T10:11:53.252Z,4.30
2023-03-06T10:12:53.428Z,4.20
2023-03-06T10:13:53.220Z,4.20
2023-03-06T10:14:54.394Z,4.30
2023-03-06T10:15:53.248Z,4.10
2023-03-06T10:16:53.311Z,4.50
2023-03-06T10:17:53.166Z,4.10
2023-03-06T10:18:53.235Z,4.20
2023-03-06T10:19:53.204Z,4.40
2023-03-06T10:20:55.263Z,3.90
2023-03-06T10:21:53.148Z,4.00
2023-03-06T10:23:01.119Z,4.60
2023-03-06T10:23:54.106Z,4.50
2023-03-06T10:24:53.253Z,4.40
2023-03-06T10:25:53.068Z,4.80
2023-03-06T10:26:53.357Z,4.90
2023-03-06T10:27:53.204Z,4.90
2023-03-06T10:28:53.116Z,4.50
2023-03-06T10:30:02.190Z,4.40
2023-03-06T10:30:54.122Z,9.30
2023-03-06T10:31:53.115Z,6.80
2023-03-06T10:32:53.004Z,4.60
2023-03-06T10:33:53.148Z,13.70
2023-03-06T10:34:52.942Z,5.40
2023-03-06T10:35:53.209Z,7.00
2023-03-06T10:36:52.940Z,5.80
2023-03-06T10:37:53.039Z,4.60
2023-03-06T10:38:52.896Z,4.40
2023-03-06T10:39:53.113Z,4.10
2023-03-06T10:40:52.981Z,4.40
2023-03-06T10:41:53.052Z,4.20
2023-03-06T10:43:05.121Z,4.10
2023-03-06T10:43:53.833Z,4.30
2023-03-06T10:44:52.908Z,4.20
2023-03-06T10:45:52.814Z,4.20
2023-03-06T10:46:53.865Z,4.40
2023-03-06T10:47:52.766Z,5.00
2023-03-06T10:48:52.865Z,4.20
2023-03-06T10:49:52.746Z,4.20
2023-03-06T10:50:52.931Z,4.70
2023-03-06T10:51:52.771Z,4.20
2023-03-06T10:52:52.741Z,4.30
2023-03-06T10:53:52.682Z,4.20
2023-03-06T10:54:52.826Z,4.40
2023-03-06T10:55:52.668Z,4.40
2023-03-06T10:56:52.764Z,5.00
2023-03-06T10:57:52.664Z,4.90
2023-03-06T10:58:52.741Z,4.40
2023-03-06T10:59:52.627Z,4.10
2023-03-06T11:00:52.773Z,4.20
2023-03-06T11:01:52.608Z,4.30
2023-03-06T11:02:52.714Z,5.50
2023-03-06T11:03:52.564Z,4.40
2023-03-06T11:04:54.800Z,4.20
2023-03-06T11:05:52.522Z,3.80
2023-03-06T11:06:52.683Z,4.10
2023-03-06T11:07:52.542Z,4.50
2023-03-06T11:08:52.613Z,4.20
2023-03-06T11:09:52.490Z,4.70
2023-03-06T11:10:52.652Z,4.10
2023-03-06T11:11:52.486Z,4.50
2023-03-06T11:12:53.512Z,4.40
2023-03-06T11:13:52.421Z,3.90
2023-03-06T11:14:52.531Z,4.00
2023-03-06T11:15:52.443Z,4.60
2023-03-06T11:16:52.634Z,4.40
2023-03-06T11:17:52.382Z,4.80
2023-03-06T11:18:52.504Z,4.30
2023-03-06T11:19:52.332Z,4.70
2023-03-06T11:20:53.266Z,4.40
2023-03-06T11:21:52.332Z,4.40
2023-03-06T11:24:01.853Z,4.10
2023-03-06T11:25:01.693Z,4.20
2023-03-06T11:26:01.771Z,3.90
2023-03-06T11:27:01.618Z,4.40
2023-03-06T11:28:01.718Z,4.40
2023-03-06T11:29:01.644Z,4.20
2023-03-06T11:30:01.649Z,4.30
2023-03-06T11:31:01.646Z,4.80
2023-03-06T11:32:01.770Z,5.80
2023-03-06T11:33:01.567Z,4.00
2023-03-06T11:34:01.726Z,4.50
2023-03-06T11:35:01.569Z,4.60
2023-03-06T11:36:01.554Z,4.10
2023-03-06T11:37:01.494Z,4.40
2023-03-06T11:38:01.588Z,4.30
2023-03-06T11:39:01.466Z,4.40
2023-03-06T11:40:02.556Z,4.30
2023-03-06T11:41:01.422Z,4.70
2023-03-06T11:42:01.552Z,4.00
2023-03-06T11:43:01.396Z,4.20
2023-03-06T11:44:01.616Z,4.50
2023-03-06T11:45:03.036Z,4.60
2023-03-06T11:46:01.436Z,4.30
2023-03-06T11:47:01.404Z,4.20
2023-03-06T11:48:01.531Z,4.20
2023-03-06T11:49:01.323Z,5.20
2023-03-06T11:50:01.402Z,4.50
2023-03-06T11:51:01.304Z,4.20
2023-03-06T11:52:03.523Z,4.20
2023-03-06T11:53:01.266Z,4.40
2023-03-06T11:54:01.384Z,4.20
2023-03-06T11:55:01.315Z,4.20
2023-03-06T11:56:03.396Z,4.10
2023-03-06T11:57:01.241Z,4.50
2023-03-06T11:58:03.334Z,4.30
2023-03-06T11:59:01.199Z,4.80
2023-03-06T12:00:22.249Z,4.20
2023-03-06T12:01:01.158Z,4.60
2023-03-06T12:02:01.347Z,4.40
2023-03-06T12:03:01.155Z,4.20
2023-03-06T12:04:01.247Z,4.60
2023-03-06T12:05:01.261Z,4.40
2023-03-06T12:06:01.181Z,4.40
2023-03-06T12:07:01.089Z,4.70
2023-03-06T12:08:01.231Z,4.00
2023-03-06T12:09:01.068Z,4.50
2023-03-06T12:10:01.155Z,4.40
2023-03-06T12:11:01.076Z,4.40
2023-03-06T12:12:01.245Z,4.20
2023-03-06T12:13:00.996Z,4.20
2023-03-06T12:14:03.667Z,4.60
2023-03-06T12:15:01.094Z,4.70
2023-03-06T12:16:01.064Z,4.60
2023-03-06T12:17:00.945Z,4.50
2023-03-06T12:18:01.141Z,4.90
2023-03-06T12:19:00.917Z,4.70
2023-03-06T12:20:01.027Z,4.90
2023-03-06T12:21:00.924Z,5.90
2023-03-06T12:22:01.036Z,5.80
2023-03-06T12:23:14.488Z,5.30
2023-03-06T12:24:01.873Z,4.80
2023-03-06T12:25:02.390Z,4.60
2023-03-06T12:26:00.818Z,4.70
2023-03-06T12:27:01.892Z,4.80
2023-03-06T12:28:00.814Z,7.20
2023-03-06T12:29:01.858Z,5.20
2023-03-06T12:30:00.782Z,4.70
2023-03-06T12:31:00.866Z,7.80
2023-03-06T12:32:00.842Z,5.10
2023-03-06T12:33:00.880Z,5.00
2023-03-06T12:34:00.748Z,4.90
2023-03-06T12:35:01.082Z,5.60
2023-03-06T12:36:00.725Z,7.90
2023-03-06T12:37:00.780Z,9.00
2023-03-06T12:38:00.736Z,15.20
2023-03-06T12:39:04.054Z,4.60
2023-03-06T12:40:00.667Z,5.00
2023-03-06T12:41:00.744Z,9.40
2023-03-06T12:42:00.614Z,4.50
2023-03-06T12:43:00.786Z,18.20
2023-03-06T12:44:00.677Z,6.40
2023-03-06T12:45:00.800Z,4.60
2023-03-06T12:46:00.595Z,5.00
2023-03-06T12:47:00.666Z,9.80
2023-03-06T12:48:00.544Z,5.00
2023-03-06T12:49:00.686Z,5.00
2023-03-06T12:50:00.516Z,5.00
2023-03-06T12:51:02.635Z,6.70
2023-03-06T12:52:00.509Z,5.80
2023-03-06T12:53:00.757Z,9.40
2023-03-06T12:54:00.479Z,5.20
2023-03-06T12:55:01.518Z,7.70
2023-03-06T12:56:00.442Z,4.90
2023-03-06T12:57:00.585Z,4.40
2023-03-06T12:58:00.408Z,4.70
2023-03-06T12:59:00.578Z,5.00
2023-03-06T13:00:00.381Z,5.20
2023-03-06T13:01:04.443Z,4.60
2023-03-06T13:02:00.353Z,4.40
2023-03-06T13:03:03.241Z,6.80
2023-03-06T13:04:00.335Z,4.80
2023-03-06T13:05:00.453Z,8.40
2023-03-06T13:06:00.364Z,4.40
2023-03-06T13:07:01.438Z,4.50
2023-03-06T13:08:00.298Z,5.00
2023-03-06T13:09:00.439Z,6.50
2023-03-06T13:10:00.251Z,5.00
2023-03-06T13:11:00.381Z,5.80
2023-03-06T13:12:00.223Z,5.40
2023-03-06T13:13:00.331Z,4.30
2023-03-06T13:14:00.216Z,4.40
2023-03-06T13:15:00.318Z,4.80
2023-03-06T13:16:00.181Z,5.40
2023-03-06T13:17:00.320Z,4.10
2023-03-06T13:18:00.167Z,5.30
2023-03-06T13:19:00.331Z,4.70
2023-03-06T13:20:00.164Z,4.60
2023-03-06T13:21:00.259Z,5.50
2023-03-06T13:22:00.128Z,4.60
2023-03-06T13:23:00.198Z,4.70
2023-03-06T13:24:00.088Z,4.60